sensor_id;sensor_type;location;lat;lon;timestamp;temperature;humidity
19168;DHT22;9716;53.114;18.040;2022-09-09T00:00:14;16.00;99.90
19168;DHT22;9716;53.114;18.040;2022-09-09T00:03:12;16.00;99.90
19168;DHT22;9716;53.114;18.040;2022-09-09T00:05:48;16.00;99.90
19168;DHT22;9716;53.114;18.040;2022-09-09T00:08:21;16.00;99.90
19168;DHT22;9716;53.114;18.040;2022-09-09T00:10:57;16.00;99.90
19168;DHT22;9716;53.114;18.040;2022-09-09T00:13:32;15.90;99.90
19168;DHT22;9716;53.114;18.040;2022-09-09T00:16:05;15.90;99.90
19168;DHT22;9716;53.114;18.040;2022-09-09T00:18:46;15.90;99.90
19168;DHT22;9716;53.114;18.040;2022-09-09T00:21:18;15.90;99.90
19168;DHT22;9716;53.114;18.040;2022-09-09T00:23:49;15.80;99.90
19168;DHT22;9716;53.114;18.040;2022-09-09T00:26:25;15.80;99.90
19168;DHT22;9716;53.114;18.040;2022-09-09T00:29:04;15.80;99.90
19168;DHT22;9716;53.114;18.040;2022-09-09T00:31:33;15.70;99.90
19168;DHT22;9716;53.114;18.040;2022-09-09T00:34:11;15.70;99.90
19168;DHT22;9716;53.114;18.040;2022-09-09T00:36:41;15.60;99.90
19168;DHT22;9716;53.114;18.040;2022-09-09T00:39:27;15.60;99.90
19168;DHT22;9716;53.114;18.040;2022-09-09T00:42:13;15.60;99.90
19168;DHT22;9716;53.114;18.040;2022-09-09T00:44:51;15.60;99.90
19168;DHT22;9716;53.114;18.040;2022-09-09T00:47:41;15.60;99.90
19168;DHT22;9716;53.114;18.040;2022-09-09T00:50:23;15.60;99.90
19168;DHT22;9716;53.114;18.040;2022-09-09T00:52:59;15.60;99.90
19168;DHT22;9716;53.114;18.040;2022-09-09T00:55:34;15.60;99.90
19168;DHT22;9716;53.114;18.040;2022-09-09T00:58:10;15.60;99.90
19168;DHT22;9716;53.114;18.040;2022-09-09T01:00:43;15.60;99.90
19168;DHT22;9716;53.114;18.040;2022-09-09T01:03:20;15.60;99.90
19168;DHT22;9716;53.114;18.040;2022-09-09T01:05:57;15.60;99.90
19168;DHT22;9716;53.114;18.040;2022-09-09T01:08:42;15.60;99.90
19168;DHT22;9716;53.114;18.040;2022-09-09T01:11:20;15.60;99.90
19168;DHT22;9716;53.114;18.040;2022-09-09T01:13:55;15.60;99.90
19168;DHT22;9716;53.114;18.040;2022-09-09T01:16:26;15.60;99.90
19168;DHT22;9716;53.114;18.040;2022-09-09T01:18:58;15.60;99.90
19168;DHT22;9716;53.114;18.040;2022-09-09T01:21:34;15.60;99.90
19168;DHT22;9716;53.114;18.040;2022-09-09T01:24:26;15.60;99.90
19168;DHT22;9716;53.114;18.040;2022-09-09T01:26:58;15.60;99.90
19168;DHT22;9716;53.114;18.040;2022-09-09T01:29:28;15.60;99.90
19168;DHT22;9716;53.114;18.040;2022-09-09T01:31:58;15.60;99.90
19168;DHT22;9716;53.114;18.040;2022-09-09T01:34:29;15.60;99.90
19168;DHT22;9716;53.114;18.040;2022-09-09T01:37:02;15.50;99.90
19168;DHT22;9716;53.114;18.040;2022-09-09T01:39:33;15.50;99.90
19168;DHT22;9716;53.114;18.040;2022-09-09T01:42:06;15.40;99.90
19168;DHT22;9716;53.114;18.040;2022-09-09T01:44:36;15.40;99.90
19168;DHT22;9716;53.114;18.040;2022-09-09T01:47:05;15.40;99.90
19168;DHT22;9716;53.114;18.040;2022-09-09T01:49:34;15.40;99.90
19168;DHT22;9716;53.114;18.040;2022-09-09T01:52:03;15.30;99.90
19168;DHT22;9716;53.114;18.040;2022-09-09T01:54:32;15.30;99.90
19168;DHT22;9716;53.114;18.040;2022-09-09T01:57:08;15.30;99.90
19168;DHT22;9716;53.114;18.040;2022-09-09T01:59:48;15.30;99.90
19168;DHT22;9716;53.114;18.040;2022-09-09T02:02:22;15.30;99.90
19168;DHT22;9716;53.114;18.040;2022-09-09T02:04:56;15.30;99.90
19168;DHT22;9716;53.114;18.040;2022-09-09T02:07:37;15.30;99.90
19168;DHT22;9716;53.114;18.040;2022-09-09T02:10:11;15.30;99.90
19168;DHT22;9716;53.114;18.040;2022-09-09T02:12:45;15.30;99.90
19168;DHT22;9716;53.114;18.040;2022-09-09T02:15:19;15.30;99.90
19168;DHT22;9716;53.114;18.040;2022-09-09T02:17:49;15.30;99.90
19168;DHT22;9716;53.114;18.040;2022-09-09T02:20:21;15.30;99.90
19168;DHT22;9716;53.114;18.040;2022-09-09T02:22:52;15.30;99.90
19168;DHT22;9716;53.114;18.040;2022-09-09T02:25:23;15.40;99.90
19168;DHT22;9716;53.114;18.040;2022-09-09T02:27:54;15.40;99.90
19168;DHT22;9716;53.114;18.040;2022-09-09T02:30:22;15.40;99.90
19168;DHT22;9716;53.114;18.040;2022-09-09T02:32:53;15.40;99.90
19168;DHT22;9716;53.114;18.040;2022-09-09T02:35:24;15.30;99.90
19168;DHT22;9716;53.114;18.040;2022-09-09T02:37:55;15.40;99.90
19168;DHT22;9716;53.114;18.040;2022-09-09T02:40:25;15.30;99.90
19168;DHT22;9716;53.114;18.040;2022-09-09T02:42:55;15.30;99.90
19168;DHT22;9716;53.114;18.040;2022-09-09T02:45:25;15.30;99.90
19168;DHT22;9716;53.114;18.040;2022-09-09T02:48:03;15.30;99.90
19168;DHT22;9716;53.114;18.040;2022-09-09T02:50:35;15.20;99.90
19168;DHT22;9716;53.114;18.040;2022-09-09T02:53:13;15.20;99.90
19168;DHT22;9716;53.114;18.040;2022-09-09T02:55:47;15.20;99.90
19168;DHT22;9716;53.114;18.040;2022-09-09T02:58:18;15.20;99.90
19168;DHT22;9716;53.114;18.040;2022-09-09T03:00:48;15.20;99.90
19168;DHT22;9716;53.114;18.040;2022-09-09T03:03:19;15.20;99.90
19168;DHT22;9716;53.114;18.040;2022-09-09T03:05:49;15.30;99.90
19168;DHT22;9716;53.114;18.040;2022-09-09T03:08:18;15.30;99.90
19168;DHT22;9716;53.114;18.040;2022-09-09T03:10:46;15.30;99.90
19168;DHT22;9716;53.114;18.040;2022-09-09T03:13:15;15.30;99.90
19168;DHT22;9716;53.114;18.040;2022-09-09T03:15:49;15.30;99.90
19168;DHT22;9716;53.114;18.040;2022-09-09T03:18:19;15.30;99.90
19168;DHT22;9716;53.114;18.040;2022-09-09T03:20:47;15.30;99.90
19168;DHT22;9716;53.114;18.040;2022-09-09T03:23:16;15.30;99.90
19168;DHT22;9716;53.114;18.040;2022-09-09T03:25:49;15.40;99.90
19168;DHT22;9716;53.114;18.040;2022-09-09T03:28:18;15.40;99.90
19168;DHT22;9716;53.114;18.040;2022-09-09T03:30:49;15.40;99.90
19168;DHT22;9716;53.114;18.040;2022-09-09T03:33:18;15.40;99.90
19168;DHT22;9716;53.114;18.040;2022-09-09T03:35:46;15.40;99.90
19168;DHT22;9716;53.114;18.040;2022-09-09T03:38:16;15.40;99.90
19168;DHT22;9716;53.114;18.040;2022-09-09T03:40:54;15.40;99.90
19168;DHT22;9716;53.114;18.040;2022-09-09T03:43:25;15.30;99.90
19168;DHT22;9716;53.114;18.040;2022-09-09T03:45:55;15.30;99.90
19168;DHT22;9716;53.114;18.040;2022-09-09T03:48:25;15.40;99.90
19168;DHT22;9716;53.114;18.040;2022-09-09T03:50:55;15.30;99.90
19168;DHT22;9716;53.114;18.040;2022-09-09T03:53:25;15.40;99.90
19168;DHT22;9716;53.114;18.040;2022-09-09T03:55:55;15.30;99.90
19168;DHT22;9716;53.114;18.040;2022-09-09T03:58:27;15.30;99.90
19168;DHT22;9716;53.114;18.040;2022-09-09T04:00:58;15.30;99.90
19168;DHT22;9716;53.114;18.040;2022-09-09T04:03:28;15.30;99.90
19168;DHT22;9716;53.114;18.040;2022-09-09T04:05:59;15.30;99.90
19168;DHT22;9716;53.114;18.040;2022-09-09T04:08:29;15.30;99.90
19168;DHT22;9716;53.114;18.040;2022-09-09T04:10:59;15.30;99.90
19168;DHT22;9716;53.114;18.040;2022-09-09T04:13:29;15.30;99.90
19168;DHT22;9716;53.114;18.040;2022-09-09T04:15:59;15.30;99.90
19168;DHT22;9716;53.114;18.040;2022-09-09T04:18:28;15.30;99.90
19168;DHT22;9716;53.114;18.040;2022-09-09T04:20:58;15.30;99.90
19168;DHT22;9716;53.114;18.040;2022-09-09T04:23:28;15.30;99.90
19168;DHT22;9716;53.114;18.040;2022-09-09T04:25:58;15.30;99.90
19168;DHT22;9716;53.114;18.040;2022-09-09T04:28:29;15.30;99.90
19168;DHT22;9716;53.114;18.040;2022-09-09T04:31:06;15.30;99.90
19168;DHT22;9716;53.114;18.040;2022-09-09T04:33:35;15.30;99.90
19168;DHT22;9716;53.114;18.040;2022-09-09T04:36:07;15.30;99.90
19168;DHT22;9716;53.114;18.040;2022-09-09T04:38:36;15.30;99.90
19168;DHT22;9716;53.114;18.040;2022-09-09T04:41:05;15.20;99.90
19168;DHT22;9716;53.114;18.040;2022-09-09T04:43:34;15.20;99.90
19168;DHT22;9716;53.114;18.040;2022-09-09T04:46:05;15.20;99.90
19168;DHT22;9716;53.114;18.040;2022-09-09T04:48:34;15.20;99.90
19168;DHT22;9716;53.114;18.040;2022-09-09T04:51:04;15.20;99.90
19168;DHT22;9716;53.114;18.040;2022-09-09T04:53:34;15.20;99.90
19168;DHT22;9716;53.114;18.040;2022-09-09T04:56:04;15.20;99.90
19168;DHT22;9716;53.114;18.040;2022-09-09T04:58:33;15.20;99.90
19168;DHT22;9716;53.114;18.040;2022-09-09T05:01:09;15.20;99.90
19168;DHT22;9716;53.114;18.040;2022-09-09T05:03:39;15.20;99.90
19168;DHT22;9716;53.114;18.040;2022-09-09T05:06:09;15.20;99.90
19168;DHT22;9716;53.114;18.040;2022-09-09T05:08:39;15.20;99.90
19168;DHT22;9716;53.114;18.040;2022-09-09T05:11:17;15.20;99.90
19168;DHT22;9716;53.114;18.040;2022-09-09T05:13:46;15.20;99.90
19168;DHT22;9716;53.114;18.040;2022-09-09T05:16:17;15.30;99.90
19168;DHT22;9716;53.114;18.040;2022-09-09T05:18:47;15.30;99.90
19168;DHT22;9716;53.114;18.040;2022-09-09T05:21:17;15.40;99.90
19168;DHT22;9716;53.114;18.040;2022-09-09T05:23:46;15.40;99.90
19168;DHT22;9716;53.114;18.040;2022-09-09T05:26:16;15.40;99.90
19168;DHT22;9716;53.114;18.040;2022-09-09T05:28:45;15.40;99.90
19168;DHT22;9716;53.114;18.040;2022-09-09T05:31:16;15.40;99.90
19168;DHT22;9716;53.114;18.040;2022-09-09T05:33:47;15.40;99.90
19168;DHT22;9716;53.114;18.040;2022-09-09T05:36:18;15.40;99.90
19168;DHT22;9716;53.114;18.040;2022-09-09T05:38:47;15.50;99.90
19168;DHT22;9716;53.114;18.040;2022-09-09T05:41:17;15.50;99.90
19168;DHT22;9716;53.114;18.040;2022-09-09T05:43:47;15.60;99.90
19168;DHT22;9716;53.114;18.040;2022-09-09T05:46:18;15.60;99.90
19168;DHT22;9716;53.114;18.040;2022-09-09T05:48:48;15.70;99.90
19168;DHT22;9716;53.114;18.040;2022-09-09T05:51:20;15.70;99.90
19168;DHT22;9716;53.114;18.040;2022-09-09T05:53:49;15.80;99.90
19168;DHT22;9716;53.114;18.040;2022-09-09T05:56:19;15.80;99.90
19168;DHT22;9716;53.114;18.040;2022-09-09T05:58:49;15.80;99.90
19168;DHT22;9716;53.114;18.040;2022-09-09T06:01:21;15.80;99.90
19168;DHT22;9716;53.114;18.040;2022-09-09T06:03:51;15.80;99.90
19168;DHT22;9716;53.114;18.040;2022-09-09T06:06:20;15.80;99.90
19168;DHT22;9716;53.114;18.040;2022-09-09T06:08:51;15.80;99.90
19168;DHT22;9716;53.114;18.040;2022-09-09T06:11:21;15.80;99.90
19168;DHT22;9716;53.114;18.040;2022-09-09T06:13:50;15.80;99.90
19168;DHT22;9716;53.114;18.040;2022-09-09T06:16:23;15.80;99.90
19168;DHT22;9716;53.114;18.040;2022-09-09T06:18:53;15.90;99.90
19168;DHT22;9716;53.114;18.040;2022-09-09T06:21:23;15.90;99.90
19168;DHT22;9716;53.114;18.040;2022-09-09T06:23:52;15.90;99.90
19168;DHT22;9716;53.114;18.040;2022-09-09T06:26:28;15.90;99.90
19168;DHT22;9716;53.114;18.040;2022-09-09T06:28:58;15.90;99.90
19168;DHT22;9716;53.114;18.040;2022-09-09T06:31:29;15.90;99.90
19168;DHT22;9716;53.114;18.040;2022-09-09T06:33:58;15.90;99.90
19168;DHT22;9716;53.114;18.040;2022-09-09T06:36:28;15.90;99.90
19168;DHT22;9716;53.114;18.040;2022-09-09T06:38:58;15.90;99.90
19168;DHT22;9716;53.114;18.040;2022-09-09T06:41:29;16.00;99.90
19168;DHT22;9716;53.114;18.040;2022-09-09T06:43:58;16.00;99.90
19168;DHT22;9716;53.114;18.040;2022-09-09T06:46:30;16.00;99.90
19168;DHT22;9716;53.114;18.040;2022-09-09T06:49:00;16.00;99.90
19168;DHT22;9716;53.114;18.040;2022-09-09T06:51:30;16.00;99.90
19168;DHT22;9716;53.114;18.040;2022-09-09T06:54:00;16.00;99.90
19168;DHT22;9716;53.114;18.040;2022-09-09T06:56:31;16.00;99.90
19168;DHT22;9716;53.114;18.040;2022-09-09T06:59:02;16.10;99.90
19168;DHT22;9716;53.114;18.040;2022-09-09T07:01:34;16.10;99.90
19168;DHT22;9716;53.114;18.040;2022-09-09T07:04:04;16.20;99.90
19168;DHT22;9716;53.114;18.040;2022-09-09T07:06:36;16.20;99.90
19168;DHT22;9716;53.114;18.040;2022-09-09T07:09:07;16.20;99.90
19168;DHT22;9716;53.114;18.040;2022-09-09T07:11:38;16.20;99.90
19168;DHT22;9716;53.114;18.040;2022-09-09T07:14:08;16.20;99.90
19168;DHT22;9716;53.114;18.040;2022-09-09T07:16:42;16.20;99.90
19168;DHT22;9716;53.114;18.040;2022-09-09T07:19:11;16.30;99.90
19168;DHT22;9716;53.114;18.040;2022-09-09T07:21:42;16.40;99.90
19168;DHT22;9716;53.114;18.040;2022-09-09T07:24:11;16.50;99.90
19168;DHT22;9716;53.114;18.040;2022-09-09T07:26:40;16.50;99.90
19168;DHT22;9716;53.114;18.040;2022-09-09T07:29:09;16.50;99.90
19168;DHT22;9716;53.114;18.040;2022-09-09T07:31:48;16.60;99.90
19168;DHT22;9716;53.114;18.040;2022-09-09T07:34:17;16.60;99.90
19168;DHT22;9716;53.114;18.040;2022-09-09T07:36:45;16.60;99.90
19168;DHT22;9716;53.114;18.040;2022-09-09T07:39:14;16.70;99.90
19168;DHT22;9716;53.114;18.040;2022-09-09T07:41:46;16.70;99.90
19168;DHT22;9716;53.114;18.040;2022-09-09T07:44:17;16.80;99.90
19168;DHT22;9716;53.114;18.040;2022-09-09T07:46:47;16.90;99.90
19168;DHT22;9716;53.114;18.040;2022-09-09T07:49:16;17.00;99.90
19168;DHT22;9716;53.114;18.040;2022-09-09T07:51:53;17.10;99.90
19168;DHT22;9716;53.114;18.040;2022-09-09T07:54:22;17.20;99.90
19168;DHT22;9716;53.114;18.040;2022-09-09T07:56:52;17.30;99.90
19168;DHT22;9716;53.114;18.040;2022-09-09T07:59:20;17.40;99.90
19168;DHT22;9716;53.114;18.040;2022-09-09T08:01:51;17.40;99.90
19168;DHT22;9716;53.114;18.040;2022-09-09T08:04:23;17.40;99.90
19168;DHT22;9716;53.114;18.040;2022-09-09T08:06:54;17.40;99.90
19168;DHT22;9716;53.114;18.040;2022-09-09T08:09:23;17.50;99.90
19168;DHT22;9716;53.114;18.040;2022-09-09T08:11:54;17.50;99.90
19168;DHT22;9716;53.114;18.040;2022-09-09T08:14:23;17.60;99.90
19168;DHT22;9716;53.114;18.040;2022-09-09T08:16:53;17.70;99.90
19168;DHT22;9716;53.114;18.040;2022-09-09T08:19:23;17.60;99.90
19168;DHT22;9716;53.114;18.040;2022-09-09T08:21:51;17.70;99.90
19168;DHT22;9716;53.114;18.040;2022-09-09T08:24:21;17.70;99.90
19168;DHT22;9716;53.114;18.040;2022-09-09T08:26:50;17.80;99.90
19168;DHT22;9716;53.114;18.040;2022-09-09T08:29:18;17.80;99.90
19168;DHT22;9716;53.114;18.040;2022-09-09T08:31:48;17.90;99.90
19168;DHT22;9716;53.114;18.040;2022-09-09T08:34:18;17.90;99.90
19168;DHT22;9716;53.114;18.040;2022-09-09T08:36:48;18.00;99.90
19168;DHT22;9716;53.114;18.040;2022-09-09T08:39:19;18.00;99.90
19168;DHT22;9716;53.114;18.040;2022-09-09T08:42:32;18.20;99.90
19168;DHT22;9716;53.114;18.040;2022-09-09T08:45:26;18.30;99.90
19168;DHT22;9716;53.114;18.040;2022-09-09T08:48:06;18.30;99.90
19168;DHT22;9716;53.114;18.040;2022-09-09T08:50:40;18.30;99.90
19168;DHT22;9716;53.114;18.040;2022-09-09T08:53:16;18.30;99.90
19168;DHT22;9716;53.114;18.040;2022-09-09T08:55:48;18.40;99.90
19168;DHT22;9716;53.114;18.040;2022-09-09T08:58:20;18.40;99.90
19168;DHT22;9716;53.114;18.040;2022-09-09T09:01:02;18.40;99.90
19168;DHT22;9716;53.114;18.040;2022-09-09T09:03:41;18.50;99.90
19168;DHT22;9716;53.114;18.040;2022-09-09T09:06:25;18.50;99.90
19168;DHT22;9716;53.114;18.040;2022-09-09T09:08:59;18.50;99.90
19168;DHT22;9716;53.114;18.040;2022-09-09T09:11:35;18.50;99.90
19168;DHT22;9716;53.114;18.040;2022-09-09T09:14:09;18.50;99.90
19168;DHT22;9716;53.114;18.040;2022-09-09T09:16:41;18.50;99.90
19168;DHT22;9716;53.114;18.040;2022-09-09T09:19:16;18.60;99.90
19168;DHT22;9716;53.114;18.040;2022-09-09T09:21:52;18.60;99.90
19168;DHT22;9716;53.114;18.040;2022-09-09T09:24:28;18.70;99.90
19168;DHT22;9716;53.114;18.040;2022-09-09T09:27:09;18.80;99.90
19168;DHT22;9716;53.114;18.040;2022-09-09T09:29:40;18.90;99.90
19168;DHT22;9716;53.114;18.040;2022-09-09T09:32:33;19.00;99.90
19168;DHT22;9716;53.114;18.040;2022-09-09T09:35:08;19.10;99.90
19168;DHT22;9716;53.114;18.040;2022-09-09T09:37:40;19.20;99.90
19168;DHT22;9716;53.114;18.040;2022-09-09T09:40:31;19.20;99.90
19168;DHT22;9716;53.114;18.040;2022-09-09T09:43:01;19.30;99.90
19168;DHT22;9716;53.114;18.040;2022-09-09T09:45:40;19.30;99.90
19168;DHT22;9716;53.114;18.040;2022-09-09T09:48:21;19.30;99.90
19168;DHT22;9716;53.114;18.040;2022-09-09T09:50:52;19.40;99.90
19168;DHT22;9716;53.114;18.040;2022-09-09T09:53:25;19.50;99.90
19168;DHT22;9716;53.114;18.040;2022-09-09T09:55:57;19.60;99.90
19168;DHT22;9716;53.114;18.040;2022-09-09T09:58:28;19.70;99.90
19168;DHT22;9716;53.114;18.040;2022-09-09T10:01:00;19.70;99.90
19168;DHT22;9716;53.114;18.040;2022-09-09T10:03:31;19.70;99.90
19168;DHT22;9716;53.114;18.040;2022-09-09T10:06:04;19.70;99.90
19168;DHT22;9716;53.114;18.040;2022-09-09T10:08:44;19.70;99.90
19168;DHT22;9716;53.114;18.040;2022-09-09T10:11:26;19.80;99.90
19168;DHT22;9716;53.114;18.040;2022-09-09T10:14:03;19.90;99.90
19168;DHT22;9716;53.114;18.040;2022-09-09T10:16:41;20.00;99.90
19168;DHT22;9716;53.114;18.040;2022-09-09T10:19:15;20.00;99.90
19168;DHT22;9716;53.114;18.040;2022-09-09T10:22:03;20.00;99.90
19168;DHT22;9716;53.114;18.040;2022-09-09T10:25:04;20.00;99.90
19168;DHT22;9716;53.114;18.040;2022-09-09T10:27:43;20.00;99.90
19168;DHT22;9716;53.114;18.040;2022-09-09T10:30:16;19.90;99.90
19168;DHT22;9716;53.114;18.040;2022-09-09T10:32:48;19.90;99.90
19168;DHT22;9716;53.114;18.040;2022-09-09T10:35:27;19.90;99.90
19168;DHT22;9716;53.114;18.040;2022-09-09T10:38:15;19.90;99.90
19168;DHT22;9716;53.114;18.040;2022-09-09T10:41:09;20.00;99.90
19168;DHT22;9716;53.114;18.040;2022-09-09T10:44:02;20.00;99.90
19168;DHT22;9716;53.114;18.040;2022-09-09T10:46:45;20.00;99.90
19168;DHT22;9716;53.114;18.040;2022-09-09T10:49:27;20.00;99.90
19168;DHT22;9716;53.114;18.040;2022-09-09T10:52:03;20.00;99.90
19168;DHT22;9716;53.114;18.040;2022-09-09T10:54:44;20.00;99.90
19168;DHT22;9716;53.114;18.040;2022-09-09T10:57:25;19.90;99.90
19168;DHT22;9716;53.114;18.040;2022-09-09T10:59:58;20.00;99.90
19168;DHT22;9716;53.114;18.040;2022-09-09T11:02:33;20.00;99.90
19168;DHT22;9716;53.114;18.040;2022-09-09T11:05:05;20.10;99.90
19168;DHT22;9716;53.114;18.040;2022-09-09T11:07:40;20.10;99.90
19168;DHT22;9716;53.114;18.040;2022-09-09T11:10:20;20.10;99.90
19168;DHT22;9716;53.114;18.040;2022-09-09T11:12:56;20.20;99.90
19168;DHT22;9716;53.114;18.040;2022-09-09T11:15:31;20.30;99.90
19168;DHT22;9716;53.114;18.040;2022-09-09T11:18:04;20.40;99.90
19168;DHT22;9716;53.114;18.040;2022-09-09T11:20:34;20.40;99.90
19168;DHT22;9716;53.114;18.040;2022-09-09T11:23:08;20.30;99.90
19168;DHT22;9716;53.114;18.040;2022-09-09T11:25:40;20.30;99.90
19168;DHT22;9716;53.114;18.040;2022-09-09T11:28:31;20.30;99.90
19168;DHT22;9716;53.114;18.040;2022-09-09T11:31:11;20.30;99.90
19168;DHT22;9716;53.114;18.040;2022-09-09T11:34:03;20.40;99.90
19168;DHT22;9716;53.114;18.040;2022-09-09T11:37:04;20.50;99.90
19168;DHT22;9716;53.114;18.040;2022-09-09T11:43:02;20.80;99.90
19168;DHT22;9716;53.114;18.040;2022-09-09T11:45:35;21.00;99.90
19168;DHT22;9716;53.114;18.040;2022-09-09T11:48:04;21.20;99.90
19168;DHT22;9716;53.114;18.040;2022-09-09T11:50:35;21.50;99.90
19168;DHT22;9716;53.114;18.040;2022-09-09T11:53:16;21.70;99.90
19168;DHT22;9716;53.114;18.040;2022-09-09T11:56:03;21.80;99.90
19168;DHT22;9716;53.114;18.040;2022-09-09T11:58:37;21.80;99.90
19168;DHT22;9716;53.114;18.040;2022-09-09T12:04:21;21.60;99.90
19168;DHT22;9716;53.114;18.040;2022-09-09T12:06:57;21.50;99.90
19168;DHT22;9716;53.114;18.040;2022-09-09T12:09:33;21.30;99.90
19168;DHT22;9716;53.114;18.040;2022-09-09T12:12:18;21.20;99.90
19168;DHT22;9716;53.114;18.040;2022-09-09T12:14:57;21.10;99.90
19168;DHT22;9716;53.114;18.040;2022-09-09T12:17:29;21.00;99.90
19168;DHT22;9716;53.114;18.040;2022-09-09T12:20:02;21.00;99.90
19168;DHT22;9716;53.114;18.040;2022-09-09T12:22:40;21.00;99.90
19168;DHT22;9716;53.114;18.040;2022-09-09T12:25:21;21.10;99.90
19168;DHT22;9716;53.114;18.040;2022-09-09T12:28:01;21.20;99.90
19168;DHT22;9716;53.114;18.040;2022-09-09T12:30:38;21.20;99.90
19168;DHT22;9716;53.114;18.040;2022-09-09T12:33:12;21.20;99.90
19168;DHT22;9716;53.114;18.040;2022-09-09T12:35:44;21.20;99.90
19168;DHT22;9716;53.114;18.040;2022-09-09T12:38:20;21.20;99.90
19168;DHT22;9716;53.114;18.040;2022-09-09T12:40:55;21.10;99.90
19168;DHT22;9716;53.114;18.040;2022-09-09T12:43:26;21.10;99.90
19168;DHT22;9716;53.114;18.040;2022-09-09T12:45:57;21.00;99.90
19168;DHT22;9716;53.114;18.040;2022-09-09T12:48:32;21.00;99.90
19168;DHT22;9716;53.114;18.040;2022-09-09T12:51:16;20.90;99.90
19168;DHT22;9716;53.114;18.040;2022-09-09T12:53:46;20.90;99.90
19168;DHT22;9716;53.114;18.040;2022-09-09T12:56:20;20.80;99.90
19168;DHT22;9716;53.114;18.040;2022-09-09T12:58:50;20.80;99.90
19168;DHT22;9716;53.114;18.040;2022-09-09T13:01:22;20.80;99.90
19168;DHT22;9716;53.114;18.040;2022-09-09T13:03:53;20.80;99.90
19168;DHT22;9716;53.114;18.040;2022-09-09T13:06:23;20.80;99.90
19168;DHT22;9716;53.114;18.040;2022-09-09T13:08:57;20.80;99.90
19168;DHT22;9716;53.114;18.040;2022-09-09T13:11:28;20.80;99.90
19168;DHT22;9716;53.114;18.040;2022-09-09T13:13:59;20.80;99.90
19168;DHT22;9716;53.114;18.040;2022-09-09T13:16:29;20.80;99.90
19168;DHT22;9716;53.114;18.040;2022-09-09T13:19:07;20.70;99.90
19168;DHT22;9716;53.114;18.040;2022-09-09T13:21:38;20.70;99.90
19168;DHT22;9716;53.114;18.040;2022-09-09T13:24:28;20.70;99.90
19168;DHT22;9716;53.114;18.040;2022-09-09T13:26:58;20.70;99.90
19168;DHT22;9716;53.114;18.040;2022-09-09T13:29:31;20.70;99.90
19168;DHT22;9716;53.114;18.040;2022-09-09T13:32:04;20.60;99.90
19168;DHT22;9716;53.114;18.040;2022-09-09T13:34:35;20.50;99.90
19168;DHT22;9716;53.114;18.040;2022-09-09T13:37:05;20.50;99.90
19168;DHT22;9716;53.114;18.040;2022-09-09T13:39:36;20.50;99.90
19168;DHT22;9716;53.114;18.040;2022-09-09T13:42:05;20.50;99.90
19168;DHT22;9716;53.114;18.040;2022-09-09T13:44:37;20.50;99.90
19168;DHT22;9716;53.114;18.040;2022-09-09T13:47:18;20.40;99.90
19168;DHT22;9716;53.114;18.040;2022-09-09T13:49:49;20.50;99.90
19168;DHT22;9716;53.114;18.040;2022-09-09T13:52:19;20.50;99.90
19168;DHT22;9716;53.114;18.040;2022-09-09T13:54:50;20.50;99.90
19168;DHT22;9716;53.114;18.040;2022-09-09T13:57:21;20.60;99.90
19168;DHT22;9716;53.114;18.040;2022-09-09T13:59:50;20.60;99.90
19168;DHT22;9716;53.114;18.040;2022-09-09T14:02:32;20.60;99.90
19168;DHT22;9716;53.114;18.040;2022-09-09T14:05:02;20.70;99.90
19168;DHT22;9716;53.114;18.040;2022-09-09T14:07:31;20.70;99.90
19168;DHT22;9716;53.114;18.040;2022-09-09T14:10:00;20.70;99.90
19168;DHT22;9716;53.114;18.040;2022-09-09T14:12:28;20.70;99.90
19168;DHT22;9716;53.114;18.040;2022-09-09T14:14:57;20.70;99.90
19168;DHT22;9716;53.114;18.040;2022-09-09T14:17:27;20.70;99.90
19168;DHT22;9716;53.114;18.040;2022-09-09T14:19:57;20.70;99.90
19168;DHT22;9716;53.114;18.040;2022-09-09T14:22:27;20.60;99.90
19168;DHT22;9716;53.114;18.040;2022-09-09T14:24:56;20.60;99.90
19168;DHT22;9716;53.114;18.040;2022-09-09T14:27:25;20.60;99.90
19168;DHT22;9716;53.114;18.040;2022-09-09T14:29:54;20.60;99.90
19168;DHT22;9716;53.114;18.040;2022-09-09T14:32:22;20.50;99.90
19168;DHT22;9716;53.114;18.040;2022-09-09T14:34:51;20.50;99.90
19168;DHT22;9716;53.114;18.040;2022-09-09T14:37:19;20.50;99.90
19168;DHT22;9716;53.114;18.040;2022-09-09T14:39:50;20.50;99.90
19168;DHT22;9716;53.114;18.040;2022-09-09T14:42:18;20.50;99.90
19168;DHT22;9716;53.114;18.040;2022-09-09T14:44:47;20.40;99.90
19168;DHT22;9716;53.114;18.040;2022-09-09T14:47:16;20.40;99.90
19168;DHT22;9716;53.114;18.040;2022-09-09T14:49:44;20.40;99.90
19168;DHT22;9716;53.114;18.040;2022-09-09T14:52:13;20.40;99.90
19168;DHT22;9716;53.114;18.040;2022-09-09T14:54:42;20.50;99.90
19168;DHT22;9716;53.114;18.040;2022-09-09T14:57:12;20.40;99.90
19168;DHT22;9716;53.114;18.040;2022-09-09T14:59:40;20.40;99.90
19168;DHT22;9716;53.114;18.040;2022-09-09T15:02:09;20.40;99.90
19168;DHT22;9716;53.114;18.040;2022-09-09T15:04:38;20.40;99.90
19168;DHT22;9716;53.114;18.040;2022-09-09T15:07:06;20.40;99.90
19168;DHT22;9716;53.114;18.040;2022-09-09T15:09:34;20.30;99.90
19168;DHT22;9716;53.114;18.040;2022-09-09T15:12:04;20.30;99.90
19168;DHT22;9716;53.114;18.040;2022-09-09T15:14:34;20.30;99.90
19168;DHT22;9716;53.114;18.040;2022-09-09T15:17:04;20.30;99.90
19168;DHT22;9716;53.114;18.040;2022-09-09T15:19:32;20.30;99.90
19168;DHT22;9716;53.114;18.040;2022-09-09T15:22:01;20.20;99.90
19168;DHT22;9716;53.114;18.040;2022-09-09T15:24:29;20.20;99.90
19168;DHT22;9716;53.114;18.040;2022-09-09T15:26:58;20.20;99.90
19168;DHT22;9716;53.114;18.040;2022-09-09T15:29:26;20.10;99.90
19168;DHT22;9716;53.114;18.040;2022-09-09T15:31:56;20.10;99.90
19168;DHT22;9716;53.114;18.040;2022-09-09T15:34:25;20.10;99.90
19168;DHT22;9716;53.114;18.040;2022-09-09T15:36:53;20.10;99.90
19168;DHT22;9716;53.114;18.040;2022-09-09T15:39:22;20.00;99.90
19168;DHT22;9716;53.114;18.040;2022-09-09T15:41:51;20.00;99.90
19168;DHT22;9716;53.114;18.040;2022-09-09T15:44:19;20.00;99.90
19168;DHT22;9716;53.114;18.040;2022-09-09T15:46:50;20.00;99.90
19168;DHT22;9716;53.114;18.040;2022-09-09T15:49:23;20.00;99.90
19168;DHT22;9716;53.114;18.040;2022-09-09T15:51:54;20.00;99.90
19168;DHT22;9716;53.114;18.040;2022-09-09T15:54:25;19.90;99.90
19168;DHT22;9716;53.114;18.040;2022-09-09T15:56:56;19.90;99.90
19168;DHT22;9716;53.114;18.040;2022-09-09T15:59:26;19.90;99.90
19168;DHT22;9716;53.114;18.040;2022-09-09T16:01:55;19.90;99.90
19168;DHT22;9716;53.114;18.040;2022-09-09T16:04:27;19.80;99.90
19168;DHT22;9716;53.114;18.040;2022-09-09T16:06:58;19.80;99.90
19168;DHT22;9716;53.114;18.040;2022-09-09T16:09:27;19.80;99.90
19168;DHT22;9716;53.114;18.040;2022-09-09T16:11:57;19.80;99.90